Time;durP1;ratioP1;P1;durP2;ratioP2;P2;SDS_P1;SDS_P2;PMS_P1;PMS_P2;Temp;Humidity;BMP_temperature;BMP_pressure;BME280_temperature;BME280_humidity;BME280_pressure;Samples;Min_cycle;Max_cycle;Signal;HPM_P1;HPM_P2
2022/11/28 00:01:22;;;;;;;1.10;0.90;;;15.60;99.90;;;15.88;49.50;100802.31;4830505;28;99465;-46
2022/11/28 00:03:48;;;;;;;2.90;1.23;;;15.40;99.90;;;15.57;49.42;100817.25;4840212;28;96891;-54
2022/11/28 00:06:14;;;;;;;0.50;0.50;;;15.00;99.90;;;15.58;50.60;100800.34;4849070;28;97628;-50
2022/11/28 00:08:40;;;;;;;1.57;0.60;;;14.90;99.90;;;15.52;50.53;100800.69;4844778;28;109180;-48
2022/11/28 00:11:09;;;;;;;0.53;0.53;;;14.80;99.90;;;15.50;49.64;100788.44;4846240;28;97164;-52
2022/11/28 00:13:36;;;;;;;1.33;0.60;;;14.80;99.90;;;15.55;49.04;100800.53;4850929;28;96634;-48
2022/11/28 00:16:05;;;;;;;1.07;0.80;;;15.00;99.90;;;15.56;49.89;100796.06;4843286;28;96584;-53
2022/11/28 00:18:32;;;;;;;0.67;0.50;;;15.00;99.90;;;15.55;50.98;100789.91;4850790;28;96786;-48
2022/11/28 00:20:59;;;;;;;1.17;0.53;;;15.00;99.90;;;15.67;50.43;100785.75;4848758;28;98180;-49
2022/11/28 00:23:25;;;;;;;1.20;0.60;;;15.20;99.90;;;15.69;49.68;100791.84;4837726;28;97341;-46
2022/11/28 00:26:07;;;;;;;1.47;0.77;;;15.30;99.90;;;15.59;50.06;100780.84;4849051;28;96715;-51
2022/11/28 00:28:33;;;;;;;0.70;0.70;;;15.10;99.90;;;15.60;50.61;100781.69;4844530;28;96904;-51
2022/11/28 00:30:59;;;;;;;1.77;0.77;;;15.00;99.90;;;15.47;50.10;100771.69;4839114;28;97203;-46
2022/11/28 00:33:25;;;;;;;1.70;1.07;;;14.90;99.90;;;15.49;49.86;100784.94;4841424;28;115150;-51
2022/11/28 00:36:00;;;;;;;0.87;0.60;;;14.90;99.90;;;15.38;50.70;100781.97;4842555;28;104524;-51
2022/11/28 00:38:26;;;;;;;1.27;0.63;;;14.70;99.90;;;15.40;50.63;100780.94;4843947;28;97319;-47
2022/11/28 00:40:59;;;;;;;1.30;0.43;;;14.80;99.90;;;15.35;51.08;100772.38;4826704;28;97685;-55
2022/11/28 00:43:25;;;;;;;0.87;0.60;;;14.80;99.90;;;15.35;50.93;100771.53;4839454;28;101407;-53
2022/11/28 00:45:50;;;;;;;1.23;0.73;;;14.80;99.90;;;15.45;51.20;100768.25;4837608;28;99481;-55
2022/11/28 00:48:16;;;;;;;0.73;0.50;;;14.90;99.90;;;15.60;50.87;100760.41;4831493;28;107099;-52
2022/11/28 00:50:42;;;;;;;1.80;0.63;;;15.10;99.90;;;15.59;49.51;100762.22;4845005;28;98469;-48
2022/11/28 00:53:07;;;;;;;0.53;0.40;;;15.20;99.90;;;15.76;50.39;100756.81;4836612;28;112853;-49
2022/11/28 00:55:33;;;;;;;1.10;0.63;;;15.40;99.90;;;15.83;49.59;100753.84;4842460;28;105123;-53
2022/11/28 00:57:59;;;;;;;0.80;0.60;;;15.50;99.90;;;15.91;49.75;100748.94;4841944;28;99660;-52
2022/11/28 01:00:25;;;;;;;0.70;0.70;;;15.60;99.90;;;15.84;48.85;100747.59;4840664;28;97831;-51
2022/11/28 01:02:51;;;;;;;1.30;0.60;;;15.50;99.90;;;15.96;49.83;100736.25;4842275;28;98070;-53
2022/11/28 01:05:16;;;;;;;1.73;1.07;;;15.60;99.90;;;15.84;49.56;100748.44;4840239;28;97518;-51
2022/11/28 01:07:42;;;;;;;0.70;0.53;;;15.50;99.90;;;15.81;48.17;100731.81;4835737;28;97211;-46
2022/11/28 01:10:10;;;;;;;0.97;0.60;;;15.40;99.90;;;15.88;49.80;100733.16;4838006;28;99348;-57
2022/11/28 01:12:36;;;;;;;0.60;0.50;;;15.40;99.90;;;15.91;49.61;100728.53;4830616;28;97208;-51
2022/11/28 01:15:04;;;;;;;1.23;0.50;;;15.50;99.90;;;15.90;49.59;100731.25;4843377;28;97093;-55
2022/11/28 01:17:30;;;;;;;0.90;0.70;;;15.50;99.90;;;15.90;49.87;100732.13;4834894;28;96896;-52
2022/11/28 01:19:56;;;;;;;1.87;0.77;;;15.50;99.90;;;16.00;49.65;100729.81;4835520;28;113909;-47
2022/11/28 01:22:21;;;;;;;0.83;0.67;;;15.60;99.90;;;15.89;49.77;100727.75;4837435;28;96836;-49
2022/11/28 01:24:47;;;;;;;1.23;0.60;;;15.50;99.90;;;15.95;49.26;100734.53;4838229;28;109835;-53
2022/11/28 01:27:13;;;;;;;1.03;0.50;;;15.60;99.90;;;16.00;49.78;100725.34;4839187;28;103018;-50
2022/11/28 01:29:39;;;;;;;0.90;0.87;;;15.60;99.90;;;15.89;47.92;100729.56;4836867;28;99807;-53
2022/11/28 01:32:04;;;;;;;1.77;1.10;;;15.60;99.90;;;15.89;49.80;100729.56;4839392;28;111738;-51
2022/11/28 01:34:30;;;;;;;0.90;0.80;;;15.50;99.90;;;15.79;48.87;100739.00;4836950;28;97260;-52
2022/11/28 01:36:56;;;;;;;1.07;0.80;;;15.40;99.90;;;15.81;48.98;100715.84;4845475;28;113808;-48
2022/11/28 01:39:22;;;;;;;1.27;0.50;;;15.40;99.90;;;15.77;50.00;100715.16;4844222;28;97584;-48
2022/11/28 01:41:48;;;;;;;0.80;0.50;;;15.30;99.90;;;15.80;49.96;100703.50;4845314;28;117186;-53
2022/11/28 01:44:13;;;;;;;1.43;0.80;;;15.30;99.90;;;15.87;50.05;100703.03;4844093;28;117181;-50
2022/11/28 01:46:39;;;;;;;1.13;0.70;;;15.40;99.90;;;15.95;49.95;100702.63;4847379;28;96861;-51
2022/11/28 01:49:30;;;;;;;1.03;0.83;;;15.60;99.90;;;16.03;49.49;100698.56;4840122;28;116480;-54
2022/11/28 01:52:10;;;;;;;1.17;0.63;;;15.70;99.90;;;15.98;50.04;100697.13;4829726;28;97223;-57
2022/11/28 01:54:38;;;;;;;0.90;0.70;;;15.60;99.90;;;15.97;48.79;100701.59;4843186;28;99930;-56
2022/11/28 01:57:07;;;;;;;1.43;0.87;;;15.60;99.90;;;15.83;49.02;100698.84;4841866;28;97215;-56
2022/11/28 01:59:39;;;;;;;0.60;0.60;;;15.40;99.90;;;15.92;49.93;100687.69;4840486;28;97506;-57
2022/11/28 02:02:11;;;;;;;1.37;0.80;;;15.40;99.90;;;16.00;49.89;100684.59;4837077;28;97722;-54
2022/11/28 02:04:37;;;;;;;1.73;0.90;;;15.60;99.90;;;16.09;49.59;100680.53;4829147;28;99541;-54
2022/11/28 02:07:03;;;;;;;0.90;0.40;;;15.80;99.90;;;16.24;49.21;100667.19;4836494;28;121686;-56
2022/11/28 02:09:29;;;;;;;1.60;0.93;;;16.00;99.90;;;16.31;47.67;100676.53;4842436;28;114734;-52
2022/11/28 02:12:15;;;;;;;1.90;0.73;;;16.10;99.90;;;16.39;48.51;100675.22;4844514;28;99219;-49
2022/11/28 02:15:08;;;;;;;1.30;0.87;;;16.20;99.90;;;16.31;48.13;100657.88;4837811;28;97301;-52
2022/11/28 02:17:54;;;;;;;1.10;0.50;;;16.10;99.90;;;16.36;48.68;100649.66;4838053;28;96908;-56
2022/11/28 02:20:55;;;;;;;0.90;0.90;;;16.10;99.90;;;16.34;46.21;100647.03;4829291;28;97329;-54
2022/11/28 02:23:38;;;;;;;0.90;0.67;;;16.20;99.90;;;16.24;48.96;100661.00;4830612;28;97374;-58
2022/11/28 02:27:00;;;;;;;0.93;0.70;;;15.90;99.90;;;16.10;49.19;100650.31;4822541;28;97412;-55
2022/11/28 02:30:11;;;;;;;1.00;0.57;;;15.70;99.90;;;15.79;49.70;100651.25;4819323;28;97645;-51
2022/11/28 02:33:08;;;;;;;2.20;1.57;;;15.20;99.90;;;15.36;49.47;100653.63;4835281;28;104002;-54
2022/11/28 02:35:41;;;;;;;2.10;1.17;;;14.80;99.90;;;15.01;50.89;100671.47;4832839;28;101210;-56
2022/11/28 02:38:27;;;;;;;2.77;1.17;;;14.20;99.90;;;14.62;51.82;100679.78;4833641;28;97154;-51
2022/11/28 02:41:56;;;;;;;1.20;0.83;;;13.80;99.90;;;14.30;53.06;100682.22;4847271;28;97034;-52
2022/11/28 02:44:34;;;;;;;1.70;1.27;;;13.50;99.90;;;14.12;54.19;100675.19;4813763;28;102237;-48
2022/11/28 02:47:32;;;;;;;0.57;0.50;;;13.30;99.90;;;14.18;54.90;100666.94;4829870;28;98195;-49
2022/11/28 02:50:38;;;;;;;1.03;0.93;;;13.40;99.90;;;14.20;53.79;100667.72;4817094;28;97011;-52
2022/11/28 02:53:11;;;;;;;0.97;0.70;;;13.50;99.90;;;14.39;54.10;100663.19;4783296;29;97459;-53
2022/11/28 02:55:39;;;;;;;2.73;0.90;;;13.70;99.90;;;14.42;53.61;100652.41;4826443;28;100574;-54
2022/11/28 02:58:06;;;;;;;2.63;1.57;;;13.80;99.90;;;14.63;53.08;100649.63;4838479;28;97215;-58
2022/11/28 03:00:36;;;;;;;2.43;1.20;;;14.00;99.90;;;14.62;52.92;100642.63;4840200;28;97269;-57
2022/11/28 03:03:40;;;;;;;1.87;1.10;;;14.00;99.90;;;14.64;52.52;100646.03;4841722;28;96928;-58
2022/11/28 03:06:28;;;;;;;1.47;1.20;;;14.00;99.90;;;14.37;53.20;100662.41;4827834;28;101815;-58
2022/11/28 03:09:18;;;;;;;1.00;0.60;;;13.70;99.90;;;14.36;54.18;100652.75;4841331;28;101469;-53
2022/11/28 03:12:25;;;;;;;3.50;1.20;;;13.60;99.90;;;14.27;52.81;100653.19;4824772;28;97422;-54
2022/11/28 03:14:57;;;;;;;2.13;1.10;;;13.60;99.90;;;14.10;52.86;100661.16;4835045;28;97352;-52
2022/11/28 03:17:43;;;;;;;1.23;0.73;;;13.40;99.90;;;14.04;54.69;100672.09;4839126;28;97481;-52
2022/11/28 03:20:40;;;;;;;1.00;0.40;;;13.30;99.90;;;14.03;53.56;100662.38;4836219;28;98200;-56
2022/11/28 03:23:27;;;;;;;2.73;1.30;;;13.40;99.90;;;13.98;54.94;100668.78;4849227;28;97012;-52
2022/11/28 03:26:21;;;;;;;1.33;0.83;;;13.30;99.90;;;14.13;53.73;100658.34;4836287;28;98726;-48
2022/11/28 03:29:27;;;;;;;0.67;0.57;;;13.50;99.90;;;14.45;54.63;100652.28;4828057;28;102866;-48
2022/11/28 03:32:00;;;;;;;1.07;0.73;;;13.80;99.90;;;14.69;53.76;100638.69;4827457;29;101195;-50
2022/11/28 03:34:35;;;;;;;4.00;1.33;;;14.20;99.90;;;14.90;50.45;100642.88;4846075;28;97045;-49
2022/11/28 03:37:10;;;;;;;1.17;0.73;;;14.50;99.90;;;14.99;52.59;100642.34;4842027;28;97246;-52
2022/11/28 03:39:45;;;;;;;1.63;0.83;;;14.60;99.90;;;15.16;52.42;100629.00;4843199;28;101791;-54
2022/11/28 03:42:21;;;;;;;1.20;0.70;;;14.80;99.90;;;15.21;52.12;100614.63;4838847;28;97695;-51
2022/11/28 03:45:05;;;;;;;1.87;0.83;;;14.80;99.90;;;15.25;51.91;100621.47;4839350;28;97528;-50
2022/11/28 03:47:38;;;;;;;1.30;0.80;;;14.80;99.90;;;15.36;50.96;100614.63;4824151;28;96857;-49
2022/11/28 03:50:13;;;;;;;1.27;0.80;;;14.90;99.90;;;15.40;51.17;100615.31;4844917;28;97374;-53
2022/11/28 03:52:53;;;;;;;2.50;1.03;;;15.00;99.90;;;15.48;50.62;100613.09;4838030;28;99766;-48
2022/11/28 03:55:35;;;;;;;0.70;0.63;;;15.10;99.90;;;15.38;49.92;100611.88;4841744;28;96989;-51
2022/11/28 03:58:34;;;;;;;1.47;1.00;;;14.90;99.90;;;15.39;50.41;100617.09;4821320;28;97051;-53
2022/11/28 04:01:32;;;;;;;2.87;1.40;;;14.90;99.90;;;15.21;50.82;100625.25;4825656;28;100597;-53
2022/11/28 04:04:30;;;;;;;1.30;0.70;;;14.60;99.90;;;15.13;51.83;100631.81;4833760;28;102453;-51
2022/11/28 04:07:23;;;;;;;2.00;1.17;;;14.50;99.90;;;15.07;50.35;100623.34;4835505;28;97517;-50
2022/11/28 04:10:28;;;;;;;1.97;1.10;;;14.40;99.90;;;14.77;50.96;100636.50;4821814;29;97329;-50
2022/11/28 04:13:28;;;;;;;3.53;1.03;;;14.20;99.90;;;14.65;52.64;100623.88;4845814;28;100379;-50
2022/11/28 04:16:02;;;;;;;0.83;0.50;;;13.90;99.90;;;14.81;53.04;100616.78;4827186;28;101710;-50
2022/11/28 04:19:06;;;;;;;0.93;0.73;;;14.10;99.90;;;14.85;52.46;100623.63;4837549;28;97114;-49
2022/11/28 04:22:04;;;;;;;1.27;0.73;;;14.30;99.90;;;14.78;51.47;100623.13;4839723;28;101601;-49
2022/11/28 04:24:39;;;;;;;0.60;0.60;;;14.20;99.90;;;14.86;52.38;100631.53;4838372;28;97412;-51
2022/11/28 04:27:14;;;;;;;2.63;1.20;;;14.30;99.90;;;14.69;50.20;100622.75;4829653;28;97551;-53
2022/11/28 04:29:46;;;;;;;0.80;0.80;;;14.10;99.90;;;14.68;52.96;100615.72;4829934;28;98133;-55
2022/11/28 04:32:14;;;;;;;1.77;0.90;;;14.00;99.90;;;14.83;52.29;100631.69;4820668;28;99491;-57
2022/11/28 04:34:44;;;;;;;1.30;1.17;;;14.20;99.90;;;14.84;51.30;100632.56;4842138;28;103293;-52
2022/11/28 04:37:13;;;;;;;1.00;0.60;;;14.20;99.90;;;15.06;52.69;100617.19;4824933;29;97467;-50
2022/11/28 04:39:43;;;;;;;2.80;1.30;;;14.50;99.90;;;15.20;51.61;100612.91;4841802;28;97877;-50
2022/11/28 04:42:26;;;;;;;1.67;0.60;;;14.80;99.90;;;15.33;51.27;100619.22;4835421;29;96816;-50
2022/11/28 04:45:31;;;;;;;0.60;0.53;;;14.90;99.90;;;15.24;51.91;100612.66;4815899;28;102472;-49
2022/11/28 04:47:57;;;;;;;1.07;0.80;;;14.70;99.90;;;15.33;50.29;100604.13;4818747;29;101257;-51
2022/11/28 04:50:30;;;;;;;1.93;0.93;;;14.90;99.90;;;15.17;49.63;100630.72;4828261;28;96971;-51
2022/11/28 04:53:42;;;;;;;1.97;0.77;;;14.80;99.90;;;14.92;52.24;100640.97;4832627;28;97084;-53
2022/11/28 04:56:17;;;;;;;0.97;0.80;;;14.30;99.90;;;15.01;52.60;100632.50;4824818;28;100443;-50
2022/11/28 04:58:45;;;;;;;2.77;1.50;;;14.40;99.90;;;14.92;52.41;100630.34;4816302;29;99861;-52
2022/11/28 05:01:20;;;;;;;1.87;1.03;;;14.30;99.90;;;15.03;50.32;100619.13;4845733;28;97247;-49
2022/11/28 05:03:47;;;;;;;2.10;1.00;;;14.50;99.90;;;14.94;51.96;100623.16;4829274;28;97121;-52
2022/11/28 05:06:25;;;;;;;1.90;1.23;;;14.40;99.90;;;14.85;52.13;100629.81;4829032;28;98430;-51
2022/11/28 05:08:51;;;;;;;1.73;1.00;;;14.20;99.90;;;14.63;50.73;100639.88;4814017;28;99861;-51
2022/11/28 05:11:16;;;;;;;2.20;0.97;;;13.90;99.90;;;14.34;53.24;100637.84;4838424;28;97310;-52
2022/11/28 05:13:43;;;;;;;1.20;1.10;;;13.50;99.90;;;14.30;52.01;100653.03;4857204;28;96869;-53
2022/11/28 05:16:14;;;;;;;1.90;1.50;;;13.50;99.90;;;13.91;52.41;100651.47;4846249;28;97114;-49
2022/11/28 05:18:40;;;;;;;1.90;1.20;;;13.10;99.90;;;13.55;54.08;100647.94;4841100;28;102271;-47
2022/11/28 05:21:07;;;;;;;2.30;1.33;;;12.70;99.90;;;13.46;56.22;100648.41;4834155;28;97139;-49
2022/11/28 05:23:39;;;;;;;1.93;1.00;;;12.60;99.90;;;13.22;55.82;100648.63;4841844;28;97133;-53
2022/11/28 05:26:18;;;;;;;1.57;1.10;;;12.40;99.90;;;13.17;56.40;100642.66;4854354;28;97427;-48
2022/11/28 05:28:49;;;;;;;2.63;1.23;;;12.40;99.90;;;13.04;55.60;100638.84;4841172;28;101374;-48
2022/11/28 05:31:19;;;;;;;3.57;1.30;;;12.30;99.90;;;13.06;57.74;100635.19;4854005;28;96986;-53
2022/11/28 05:33:46;;;;;;;3.53;1.50;;;12.30;99.90;;;12.98;56.37;100647.91;4841618;28;96707;-51
2022/11/28 05:36:13;;;;;;;1.77;0.90;;;12.20;99.90;;;12.93;57.54;100651.72;4844288;28;97773;-51
2022/11/28 05:38:40;;;;;;;1.83;1.20;;;12.20;99.90;;;12.71;56.73;100654.44;4846204;28;97066;-50
2022/11/28 05:41:07;;;;;;;2.00;1.40;;;12.00;99.90;;;12.66;56.99;100662.59;4836734;28;96700;-50
2022/11/28 05:43:33;;;;;;;1.27;1.00;;;11.90;99.90;;;12.70;58.63;100658.88;4839748;28;96656;-49
2022/11/28 05:45:59;;;;;;;4.83;2.10;;;11.90;99.90;;;12.64;57.81;100663.59;4830177;29;117702;-52
2022/11/28 05:48:25;;;;;;;2.37;1.40;;;11.90;99.90;;;12.66;58.61;100652.03;4841022;28;112899;-50
2022/11/28 05:50:51;;;;;;;3.57;1.60;;;11.90;99.90;;;12.73;57.63;100647.28;4833342;28;107049;-50
2022/11/28 05:53:18;;;;;;;3.50;1.30;;;12.00;99.90;;;12.81;57.25;100634.59;4838910;28;97153;-51
2022/11/28 05:55:45;;;;;;;0.70;0.63;;;12.10;99.90;;;13.05;58.68;100637.94;4836407;28;101868;-52
2022/11/28 05:58:11;;;;;;;2.33;1.40;;;12.20;99.90;;;13.24;58.01;100628.22;4840187;28;96917;-53
2022/11/28 06:00:37;;;;;;;2.23;1.20;;;12.40;99.90;;;13.42;56.74;100625.63;4842876;28;96959;-48
2022/11/28 06:03:04;;;;;;;1.13;0.90;;;12.70;99.90;;;13.66;56.41;100629.75;4833919;28;110827;-51
2022/11/28 06:05:30;;;;;;;1.97;1.27;;;12.90;99.90;;;13.88;55.72;100622.44;4833776;28;120475;-49
2022/11/28 06:07:56;;;;;;;1.57;0.80;;;13.20;99.90;;;14.07;55.17;100618.88;4837646;28;96955;-50
2022/11/28 06:10:22;;;;;;;1.67;0.90;;;13.50;99.90;;;13.97;54.62;100621.13;4834347;28;123465;-50
2022/11/28 06:12:48;;;;;;;5.63;1.30;;;13.30;99.90;;;13.99;53.13;100625.41;4843645;28;97600;-49
2022/11/28 06:15:14;;;;;;;1.60;0.73;;;13.30;99.90;;;13.89;54.23;100626.84;4837756;28;98033;-51
2022/11/28 06:17:39;;;;;;;2.27;1.30;;;13.10;99.90;;;13.61;55.35;100626.47;4838065;28;102004;-49
2022/11/28 06:20:07;;;;;;;1.57;1.17;;;12.80;99.90;;;13.55;56.76;100624.09;4832252;28;122173;-49
2022/11/28 06:22:33;;;;;;;2.17;1.17;;;12.70;99.90;;;13.58;54.52;100621.28;4837002;28;96999;-55
2022/11/28 06:24:59;;;;;;;1.53;1.10;;;12.70;99.90;;;13.62;56.64;100612.28;4837100;28;103996;-48
2022/11/28 06:27:25;;;;;;;1.57;1.10;;;12.80;99.90;;;13.73;55.27;100603.78;4834356;28;97635;-48
2022/11/28 06:29:50;;;;;;;1.97;1.37;;;13.00;99.90;;;13.82;54.73;100609.50;4840910;28;97437;-53
2022/11/28 06:32:16;;;;;;;1.20;0.77;;;13.10;99.90;;;14.13;55.07;100608.81;4840625;28;104395;-53
2022/11/28 06:34:42;;;;;;;2.90;1.33;;;13.50;99.90;;;14.18;54.69;100601.50;4843077;28;103073;-48
2022/11/28 06:37:08;;;;;;;3.27;1.20;;;13.60;99.90;;;14.20;52.61;100602.25;4834571;28;110936;-51
2022/11/28 06:39:34;;;;;;;2.30;1.10;;;13.60;99.90;;;14.59;53.72;100599.34;4838552;28;97155;-55
2022/11/28 06:41:59;;;;;;;2.53;1.17;;;14.10;99.90;;;14.73;50.94;100605.72;4838669;28;100747;-48
2022/11/28 06:44:25;;;;;;;1.80;1.03;;;14.30;99.90;;;14.85;52.90;100607.72;4844228;28;98761;-50
2022/11/28 06:46:53;;;;;;;2.40;0.77;;;14.40;99.90;;;14.83;52.88;100610.44;4842049;28;104907;-51
2022/11/28 06:49:19;;;;;;;1.63;0.87;;;14.40;99.90;;;14.80;52.46;100609.78;4838696;28;99423;-49
2022/11/28 06:51:45;;;;;;;1.30;1.20;;;14.30;99.90;;;14.94;52.38;100609.03;4841626;28;96948;-50
2022/11/28 06:54:11;;;;;;;2.87;1.43;;;14.40;99.90;;;15.03;51.09;100616.47;4840542;28;98617;-54
2022/11/28 06:56:39;;;;;;;1.00;0.73;;;14.50;99.90;;;15.04;52.62;100608.41;4836373;28;96964;-50
2022/11/28 06:59:04;;;;;;;2.20;1.40;;;14.50;99.90;;;14.98;52.34;100619.38;4825614;28;97222;-49
2022/11/28 07:01:31;;;;;;;0.43;0.40;;;14.30;99.90;;;15.02;52.71;100610.31;4835425;28;102555;-50
2022/11/28 07:03:57;;;;;;;2.37;1.40;;;14.40;99.90;;;14.91;49.47;100628.66;4841326;28;99288;-53
2022/11/28 07:06:25;;;;;;;1.70;1.00;;;14.30;99.90;;;15.01;52.24;100619.22;4840318;28;99412;-56
2022/11/28 07:08:52;;;;;;;1.13;0.73;;;14.30;99.90;;;15.01;52.33;100624.53;4843654;28;97557;-52
2022/11/28 07:11:25;;;;;;;1.10;0.90;;;14.40;99.90;;;14.92;52.75;100635.66;4839758;28;97281;-54
2022/11/28 07:13:52;;;;;;;2.17;1.77;;;14.20;99.90;;;14.66;52.28;100628.22;4837866;28;101993;-52
2022/11/28 07:16:21;;;;;;;2.03;1.10;;;13.90;99.90;;;14.64;53.33;100640.72;4832357;28;96949;-52
2022/11/28 07:18:49;;;;;;;2.10;1.10;;;13.80;99.90;;;14.40;51.65;100638.38;4831252;28;96699;-53
2022/11/28 07:21:15;;;;;;;2.23;1.20;;;13.60;99.90;;;14.14;53.13;100642.34;4843354;28;97489;-51
2022/11/28 07:23:42;;;;;;;1.33;0.97;;;13.30;99.90;;;14.10;53.05;100637.28;4830829;28;98868;-51
2022/11/28 07:26:11;;;;;;;1.47;1.20;;;13.20;99.90;;;13.99;54.74;100643.97;4832235;28;96934;-51
2022/11/28 07:28:38;;;;;;;1.73;1.30;;;13.10;99.90;;;13.74;52.10;100654.06;4839829;28;97299;-55
2022/11/28 07:31:11;;;;;;;1.60;1.10;;;13.00;99.90;;;13.62;56.12;100649.38;4841546;28;97734;-54
2022/11/28 07:33:39;;;;;;;3.23;0.90;;;12.80;99.90;;;13.82;55.31;100646.63;4840141;28;96773;-50
2022/11/28 07:36:09;;;;;;;1.07;0.70;;;13.00;99.90;;;13.87;55.42;100644.59;4840969;28;97141;-55
2022/11/28 07:38:35;;;;;;;2.50;1.07;;;13.00;99.90;;;13.84;54.46;100649.19;4836733;28;97081;-51
2022/11/28 07:41:10;;;;;;;2.73;1.57;;;13.10;99.90;;;13.73;53.60;100647.06;4840703;28;115684;-53
2022/11/28 07:43:37;;;;;;;0.60;0.50;;;13.00;99.90;;;13.85;56.11;100643.81;4834442;28;98209;-51
2022/11/28 07:46:08;;;;;;;2.57;1.33;;;13.00;99.90;;;13.78;54.66;100644.19;4844709;28;97175;-51
2022/11/28 07:48:35;;;;;;;1.43;0.90;;;13.10;99.90;;;13.77;55.69;100643.34;4843784;28;97392;-55
2022/11/28 07:51:23;;;;;;;2.13;1.17;;;13.00;99.90;;;13.79;53.96;100636.16;4853074;28;99874;-58
2022/11/28 07:53:49;;;;;;;1.60;1.37;;;13.10;99.90;;;13.86;55.43;100632.25;4844015;28;97610;-54
2022/11/28 07:56:19;;;;;;;1.00;0.90;;;13.10;99.90;;;13.99;55.30;100630.72;4842291;28;97304;-54
2022/11/28 07:58:46;;;;;;;2.30;1.60;;;13.20;99.90;;;13.86;53.39;100632.25;4841017;28;97076;-58
2022/11/28 08:01:16;;;;;;;1.80;1.20;;;13.20;99.90;;;13.94;54.85;100635.41;4841743;28;96869;-55
2022/11/28 08:03:45;;;;;;;1.50;0.53;;;13.20;99.90;;;13.83;55.46;100643.03;4821043;28;97482;-58
2022/11/28 08:06:12;;;;;;;1.93;1.30;;;13.10;99.90;;;13.67;54.50;100642.91;4842963;28;98210;-56
2022/11/28 08:08:39;;;;;;;4.90;1.13;;;12.90;99.90;;;13.66;56.10;100643.00;4843601;28;96677;-52
2022/11/28 08:11:07;;;;;;;3.67;1.17;;;12.80;99.90;;;13.57;56.23;100635.47;4850365;28;97154;-57
2022/11/28 08:13:35;;;;;;;0.83;0.50;;;12.80;99.90;;;13.84;56.04;100634.13;4851158;28;97646;-54
2022/11/28 08:16:18;;;;;;;1.87;1.17;;;13.10;99.90;;;13.88;55.72;100638.34;4844007;28;96893;-54
2022/11/28 08:18:45;;;;;;;1.07;0.97;;;13.20;99.90;;;14.00;55.36;100643.03;4837773;28;97092;-57
2022/11/28 08:21:13;;;;;;;1.60;0.77;;;13.30;99.90;;;13.92;55.48;100642.59;4835433;28;96990;-52
2022/11/28 08:23:39;;;;;;;2.10;0.80;;;13.20;99.90;;;13.98;55.37;100644.91;4843011;28;96889;-56
2022/11/28 08:26:08;;;;;;;0.63;0.57;;;13.20;99.90;;;14.16;55.47;100651.09;4851431;28;97488;-54
2022/11/28 08:28:35;;;;;;;1.80;1.07;;;13.40;99.90;;;14.33;54.70;100647.59;4842190;28;97039;-56
2022/11/28 08:31:12;;;;;;;1.23;0.97;;;13.60;99.90;;;14.23;53.27;100644.53;4843190;28;97539;-55
2022/11/28 08:33:39;;;;;;;3.60;1.77;;;13.60;99.90;;;13.88;52.33;100641.00;4835870;28;97459;-56
2022/11/28 08:36:07;;;;;;;2.67;1.27;;;13.30;99.90;;;13.45;53.95;100647.53;4841870;28;97072;-55
2022/11/28 08:38:33;;;;;;;0.80;0.80;;;12.80;99.90;;;13.34;57.23;100645.41;4843734;28;97540;-54
2022/11/28 08:41:06;;;;;;;1.90;1.07;;;12.60;99.90;;;13.38;55.32;100644.31;4836614;28;97071;-54
2022/11/28 08:43:33;;;;;;;2.87;1.07;;;12.70;99.90;;;13.48;56.10;100651.84;4840751;28;98993;-54
2022/11/28 08:46:00;;;;;;;2.93;1.40;;;12.80;99.90;;;13.54;56.69;100646.22;4844033;28;98807;-57
2022/11/28 08:48:26;;;;;;;2.17;1.10;;;12.80;99.90;;;13.62;56.60;100636.13;4843585;28;97274;-54
2022/11/28 08:50:51;;;;;;;1.67;1.17;;;12.90;99.90;;;13.60;56.47;100652.13;4836267;28;98027;-56
2022/11/28 08:53:17;;;;;;;3.63;1.33;;;12.90;99.90;;;13.73;54.90;100652.34;4837341;28;105395;-55
2022/11/28 08:55:44;;;;;;;1.70;0.90;;;13.10;99.90;;;13.74;54.97;100648.75;4844042;28;96816;-53
2022/11/28 08:58:11;;;;;;;3.13;1.23;;;13.10;99.90;;;13.69;54.75;100651.66;4846246;28;97260;-55
2022/11/28 09:00:37;;;;;;;2.53;1.40;;;13.00;99.90;;;13.74;54.55;100654.06;4840334;28;104698;-59
2022/11/28 09:03:03;;;;;;;2.10;1.27;;;13.00;99.90;;;13.84;53.75;100646.53;4838120;28;101264;-50
2022/11/28 09:05:30;;;;;;;2.13;0.93;;;13.20;99.90;;;14.01;55.15;100641.25;4832897;28;97460;-50
2022/11/28 09:07:57;;;;;;;2.03;1.37;;;13.30;99.90;;;13.84;55.96;100647.38;4838480;28;96982;-50
2022/11/28 09:10:23;;;;;;;4.03;1.60;;;13.10;99.90;;;13.69;55.14;100653.44;4836681;28;97210;-55
2022/11/28 09:12:50;;;;;;;2.80;1.57;;;13.00;99.90;;;13.60;54.71;100656.56;4839714;28;98019;-52
2022/11/28 09:15:17;;;;;;;2.07;1.37;;;12.90;99.90;;;13.54;55.67;100656.84;4837501;28;97109;-49
2022/11/28 09:17:45;;;;;;;3.73;1.47;;;12.80;99.90;;;13.39;56.23;100661.94;4836063;28;97108;-58
2022/11/28 09:20:11;;;;;;;1.10;0.97;;;12.70;99.90;;;13.52;57.14;100661.34;4841121;28;97525;-58
2022/11/28 09:22:37;;;;;;;1.33;1.00;;;12.70;99.90;;;13.51;56.24;100663.16;4832578;28;97530;-58
2022/11/28 09:25:03;;;;;;;3.60;1.30;;;12.80;99.90;;;13.47;55.32;100671.31;4844843;28;98278;-56
2022/11/28 09:27:29;;;;;;;2.63;1.63;;;12.80;99.90;;;13.56;56.32;100665.56;4836475;28;96980;-49
2022/11/28 09:29:55;;;;;;;2.27;1.47;;;12.80;99.90;;;13.53;55.87;100671.03;4836102;28;106437;-47
2022/11/28 09:32:20;;;;;;;2.43;0.97;;;12.80;99.90;;;13.50;56.57;100674.69;4840316;28;97362;-49
2022/11/28 09:34:46;;;;;;;2.30;1.50;;;12.70;99.90;;;13.45;56.08;100678.47;4837310;28;118004;-53
2022/11/28 09:37:12;;;;;;;0.93;0.80;;;12.70;99.90;;;13.42;55.48;100683.91;4837958;28;103262;-55
2022/11/28 09:39:38;;;;;;;3.20;1.50;;;12.70;99.90;;;13.36;56.18;100677.97;4840163;28;97148;-53
2022/11/28 09:42:29;;;;;;;6.37;1.43;;;12.70;99.90;;;13.34;56.41;100678.97;4839463;28;97413;-47
2022/11/28 09:45:03;;;;;;;2.93;1.00;;;12.60;99.90;;;13.49;57.26;100674.75;4835479;28;97116;-52
2022/11/28 09:47:31;;;;;;;3.87;1.70;;;12.70;99.90;;;13.22;55.65;100677.75;4840004;28;97224;-49
2022/11/28 09:50:02;;;;;;;2.87;0.90;;;12.60;99.90;;;13.42;55.57;100683.91;4824376;28;97065;-51
2022/11/28 09:52:39;;;;;;;3.33;1.37;;;12.70;99.90;;;13.42;57.39;100684.75;4840105;28;97747;-55
2022/11/28 09:55:38;;;;;;;2.90;1.27;;;12.70;99.90;;;13.40;56.33;100676.88;4826841;29;100889;-54
2022/11/28 09:58:22;;;;;;;1.10;0.80;;;12.70;99.90;;;13.36;56.03;100680.63;4836553;28;97235;-46
2022/11/28 10:01:11;;;;;;;2.17;1.10;;;12.70;99.90;;;13.36;55.61;100680.63;4819633;28;96812;-52
2022/11/28 10:04:06;;;;;;;1.40;1.20;;;12.70;99.90;;;13.36;56.73;100680.63;4837461;28;102323;-59
2022/11/28 10:06:32;;;;;;;3.17;1.00;;;12.60;99.90;;;13.37;57.65;100679.69;4841189;28;101151;-55
2022/11/28 10:09:28;;;;;;;1.83;1.10;;;12.60;99.90;;;13.33;56.94;100680.78;4848315;28;97292;-55
2022/11/28 10:12:19;;;;;;;3.20;1.70;;;12.60;99.90;;;13.28;56.32;100669.50;4840502;28;96805;-53
2022/11/28 10:15:20;;;;;;;2.90;1.00;;;12.60;99.90;;;13.46;57.43;100669.59;4835747;28;99472;-51
2022/11/28 10:18:24;;;;;;;3.13;1.77;;;12.70;99.90;;;13.38;57.54;100678.75;4840263;28;97206;-56
2022/11/28 10:20:57;;;;;;;1.97;1.20;;;12.60;99.90;;;13.58;57.26;100674.31;4837224;28;97332;-53
2022/11/28 10:23:42;;;;;;;1.63;1.10;;;12.90;99.90;;;13.61;55.72;100679.47;4846968;28;97305;-52
2022/11/28 10:26:39;;;;;;;1.93;1.40;;;12.90;99.90;;;13.73;56.22;100675.34;4842453;28;101686;-49
2022/11/28 10:29:44;;;;;;;1.90;1.20;;;13.00;99.90;;;13.64;56.40;100668.72;4818411;28;101704;-53
2022/11/28 10:32:17;;;;;;;1.43;0.70;;;12.90;99.90;;;13.66;56.57;100669.50;4833283;28;97784;-53
2022/11/28 10:35:27;;;;;;;2.53;1.27;;;12.90;99.90;;;13.58;56.39;100671.66;4820621;28;98472;-53
2022/11/28 10:37:53;;;;;;;2.30;1.27;;;12.80;99.90;;;13.84;56.00;100673.91;4836890;28;97893;-50